Time;durP1;ratioP1;P1;durP2;ratioP2;P2;SDS_P1;SDS_P2;PMS_P1;PMS_P2;Temp;Humidity;BMP_temperature;BMP_pressure;BME280_temperature;BME280_humidity;BME280_pressure;Samples;Min_cycle;Max_cycle;Signal;HPM_P1;HPM_P2
2020/12/19 00:00:48;;;;;;;7.37;6.10;;;;;;;8.52;61.70;97016.75;5107814;28;20450;-68
2020/12/19 00:03:14;;;;;;;9.17;6.20;;;;;;;8.37;62.00;97022.41;5100663;28;20174;-70
2020/12/19 00:05:40;;;;;;;7.70;6.30;;;;;;;8.47;61.91;97022.38;5108475;28;20271;-69
2020/12/19 00:08:05;;;;;;;7.90;6.70;;;;;;;8.46;60.89;97018.13;5106750;28;20200;-70
2020/12/19 00:10:31;;;;;;;8.33;6.37;;;;;;;8.46;61.45;97020.75;5109631;28;20188;-70
2020/12/19 00:13:00;;;;;;;6.90;5.97;;;;;;;8.42;61.88;97020.22;5109421;28;20216;-70
2020/12/19 00:15:27;;;;;;;6.90;6.20;;;;;;;8.33;61.83;97017.63;5110560;28;20205;-70
2020/12/19 00:17:52;;;;;;;8.57;6.80;;;;;;;8.38;61.60;97013.63;5107684;28;20427;-70
2020/12/19 00:20:18;;;;;;;8.83;6.03;;;;;;;8.38;61.79;97008.41;5101312;28;20427;-69
2020/12/19 00:22:44;;;;;;;8.50;6.53;;;;;;;8.38;61.38;97008.41;5105655;28;20702;-68
2020/12/19 00:25:10;;;;;;;7.37;6.00;;;;;;;8.37;61.85;97011.97;5103024;28;20296;-70
2020/12/19 00:27:36;;;;;;;6.90;5.73;;;;;;;8.34;61.72;97006.22;5070386;28;20433;-70
2020/12/19 00:30:03;;;;;;;8.33;6.17;;;;;;;8.29;61.97;97010.06;5088094;28;20191;-70
2020/12/19 00:32:29;;;;;;;12.70;6.43;;;;;;;8.29;61.95;97004.84;5104915;28;20201;-71
2020/12/19 00:34:55;;;;;;;9.37;6.53;;;;;;;8.29;61.82;96998.81;5059997;28;20516;-71
2020/12/19 00:37:22;;;;;;;8.37;6.20;;;;;;;8.28;62.01;96997.16;5104506;28;20184;-71
2020/12/19 00:39:47;;;;;;;6.80;5.97;;;;;;;8.28;61.91;96991.94;5108114;28;20555;-71
2020/12/19 00:42:13;;;;;;;8.93;6.00;;;;;;;8.29;62.14;96993.59;5102815;28;20893;-72
2020/12/19 00:44:39;;;;;;;10.23;5.80;;;;;;;8.31;62.10;96991.66;5104965;28;20211;-72
2020/12/19 00:47:04;;;;;;;7.60;5.80;;;;;;;8.27;62.21;96979.84;5104403;28;20219;-71
2020/12/19 00:49:30;;;;;;;8.80;6.20;;;;;;;8.26;61.59;96983.44;5111136;28;20616;-71
2020/12/19 00:51:56;;;;;;;5.27;4.73;;;;;;;8.21;62.09;96973.41;5109642;28;20209;-70
2020/12/19 00:54:21;;;;;;;6.10;5.13;;;;;;;8.22;61.94;96988.13;5111135;28;20330;-70
2020/12/19 00:56:47;;;;;;;6.27;5.13;;;;;;;8.20;62.00;96978.75;5114253;28;20216;-70
2020/12/19 00:59:13;;;;;;;12.67;5.50;;;;;;;8.21;62.51;96983.03;5114930;27;20236;-70
2020/12/19 01:01:38;;;;;;;7.47;4.90;;;;;;;8.22;61.76;96984.66;5113930;27;20177;-72
2020/12/19 01:04:04;;;;;;;7.93;5.97;;;;;;;8.20;61.65;96983.97;5114883;28;20188;-72
2020/12/19 01:06:30;;;;;;;5.77;4.83;;;;;;;8.15;62.12;96982.63;5105883;27;20544;-71
2020/12/19 01:08:58;;;;;;;8.10;5.47;;;;;;;8.16;61.54;96973.00;5113625;28;20181;-71
2020/12/19 01:11:25;;;;;;;7.37;5.77;;;;;;;8.13;61.66;96976.72;5114632;27;20564;-72
2020/12/19 01:13:51;;;;;;;7.83;5.60;;;;;;;8.12;62.42;96972.47;5113372;28;20511;-72
2020/12/19 01:16:25;;;;;;;7.83;5.53;;;;;;;8.14;61.78;96977.53;5074034;28;21335;-72
2020/12/19 01:18:52;;;;;;;7.43;5.10;;;;;;;8.12;61.84;96977.69;5104502;28;20445;-72
2020/12/19 01:21:21;;;;;;;6.33;5.27;;;;;;;8.18;61.75;96970.28;5114554;28;20427;-72
2020/12/19 01:23:48;;;;;;;7.57;5.43;;;;;;;8.18;62.11;96975.50;5096269;28;20419;-71
2020/12/19 01:26:14;;;;;;;6.13;5.20;;;;;;;8.19;61.62;96966.69;5107980;28;20533;-71
2020/12/19 01:28:40;;;;;;;7.80;5.47;;;;;;;8.15;61.78;96966.13;5096022;28;20764;-71
2020/12/19 01:31:08;;;;;;;6.53;5.20;;;;;;;8.17;61.48;96969.44;5095866;28;21036;-70
2020/12/19 01:33:34;;;;;;;7.07;5.70;;;;;;;8.13;61.34;96975.91;5114360;28;20440;-70
2020/12/19 01:36:00;;;;;;;8.40;5.60;;;;;;;8.14;61.75;96970.56;5113992;28;20538;-72
2020/12/19 01:38:26;;;;;;;7.93;5.73;;;;;;;8.12;62.04;96980.31;5114531;28;20748;-72
2020/12/19 01:40:53;;;;;;;10.23;5.10;;;;;;;8.15;61.67;96969.59;5096050;28;20414;-71
2020/12/19 01:43:19;;;;;;;5.87;4.87;;;;;;;8.14;62.12;96969.72;5113843;28;20176;-71
2020/12/19 01:45:44;;;;;;;5.83;4.70;;;;;;;8.03;61.93;96972.50;5114039;28;20972;-71
2020/12/19 01:48:22;;;;;;;6.53;5.57;;;;;;;8.07;61.96;96969.47;5106983;28;20185;-71
2020/12/19 01:50:49;;;;;;;6.23;5.57;;;;;;;8.04;61.63;96964.53;5114311;28;20322;-71
2020/12/19 01:53:16;;;;;;;8.13;5.33;;;;;;;8.07;61.90;96959.03;5114077;28;20482;-71
2020/12/19 01:55:42;;;;;;;7.80;6.23;;;;;;;8.06;61.43;96957.41;5112824;28;20981;-71
2020/12/19 01:58:07;;;;;;;6.37;5.27;;;;;;;8.05;61.56;96958.38;5104315;28;20502;-71
2020/12/19 02:00:37;;;;;;;6.50;5.40;;;;;;;8.02;61.48;96961.25;5107664;28;20416;-72
2020/12/19 02:03:02;;;;;;;8.63;5.77;;;;;;;8.03;61.51;96956.84;5111989;28;20193;-71
2020/12/19 02:05:28;;;;;;;6.57;5.63;;;;;;;7.94;62.14;96959.34;5113749;28;20831;-71
2020/12/19 02:07:54;;;;;;;7.67;5.63;;;;;;;7.95;61.86;96961.00;5096247;28;20181;-71
2020/12/19 02:10:20;;;;;;;7.80;5.00;;;;;;;7.91;62.02;96964.03;5113927;28;20628;-71
2020/12/19 02:12:46;;;;;;;5.03;4.53;;;;;;;7.92;62.03;96955.25;5114777;28;20481;-70
2020/12/19 02:15:11;;;;;;;8.47;4.80;;;;;;;7.93;61.80;96952.47;5114360;28;20697;-70
2020/12/19 02:17:37;;;;;;;4.90;4.40;;;;;;;7.90;61.96;96954.56;5111145;28;20173;-71
2020/12/19 02:20:03;;;;;;;7.60;5.03;;;;;;;7.86;62.55;96950.56;5114490;28;20181;-70
2020/12/19 02:22:29;;;;;;;7.47;5.03;;;;;;;7.81;62.05;96949.19;5114177;28;20173;-71
2020/12/19 02:24:54;;;;;;;7.43;5.53;;;;;;;7.82;62.23;96944.81;5079076;28;20186;-70
2020/12/19 02:27:20;;;;;;;6.80;5.27;;;;;;;7.82;62.56;96937.81;5109169;28;20169;-72
2020/12/19 02:29:46;;;;;;;5.80;4.50;;;;;;;7.80;61.73;96944.97;5114112;27;20279;-70
2020/12/19 02:32:11;;;;;;;6.47;5.07;;;;;;;7.80;62.30;96933.69;5113894;28;20200;-71
2020/12/19 02:34:37;;;;;;;7.70;5.10;;;;;;;7.78;61.64;96933.00;5107937;28;20172;-72
2020/12/19 02:37:03;;;;;;;5.87;4.70;;;;;;;7.76;62.46;96930.56;5112661;28;20520;-71
2020/12/19 02:39:29;;;;;;;7.43;5.20;;;;;;;7.71;62.21;96932.75;5109148;28;20181;-71
2020/12/19 02:41:55;;;;;;;7.03;4.80;;;;;;;7.67;62.41;96927.00;5112496;28;20212;-72
2020/12/19 02:44:21;;;;;;;5.80;4.90;;;;;;;7.67;62.26;96921.78;5113869;28;20520;-71
2020/12/19 02:46:47;;;;;;;6.90;4.43;;;;;;;7.67;62.71;96920.97;5089271;28;20259;-70
2020/12/19 02:49:13;;;;;;;5.53;4.57;;;;;;;7.69;62.14;96924.25;5112159;28;20986;-71
2020/12/19 02:51:39;;;;;;;5.90;4.80;;;;;;;7.65;62.96;96921.09;5110304;28;20447;-72
2020/12/19 02:54:05;;;;;;;6.33;4.73;;;;;;;7.70;62.71;96915.44;5111380;28;20687;-71
2020/12/19 02:56:31;;;;;;;5.60;4.67;;;;;;;7.67;62.38;96919.19;5112436;28;20232;-71
2020/12/19 02:58:56;;;;;;;6.17;4.70;;;;;;;7.72;62.67;96918.75;5113303;28;20454;-71
2020/12/19 03:01:29;;;;;;;4.67;4.20;;;;;;;7.72;62.63;96921.34;5113404;28;20177;-72
2020/12/19 03:03:56;;;;;;;6.10;5.20;;;;;;;7.74;62.41;96923.84;5094610;28;20184;-72
2020/12/19 03:06:21;;;;;;;6.13;4.33;;;;;;;7.72;62.26;96920.56;5114357;28;20492;-71
2020/12/19 03:08:47;;;;;;;5.73;4.30;;;;;;;7.68;62.19;96918.22;5113645;28;20470;-71
2020/12/19 03:11:13;;;;;;;7.97;5.00;;;;;;;7.70;62.44;96915.44;5113189;28;20173;-71
2020/12/19 03:13:39;;;;;;;7.80;4.80;;;;;;;7.66;62.42;96919.31;5113154;28;20173;-71
2020/12/19 03:16:04;;;;;;;6.97;4.23;;;;;;;7.73;62.22;96922.19;5112784;28;20200;-71
2020/12/19 03:18:30;;;;;;;5.13;4.13;;;;;;;7.71;62.25;96919.72;5106755;28;20685;-71
2020/12/19 03:20:56;;;;;;;5.93;4.60;;;;;;;7.76;61.93;96914.91;5104281;28;20177;-72
2020/12/19 03:23:21;;;;;;;5.13;4.30;;;;;;;7.76;62.31;96922.72;5094549;28;20632;-72
2020/12/19 03:25:49;;;;;;;6.00;4.40;;;;;;;7.76;61.93;96917.50;5111069;28;20207;-71
2020/12/19 03:28:16;;;;;;;5.87;4.70;;;;;;;7.74;61.95;96914.22;5108927;28;20720;-71
2020/12/19 03:30:41;;;;;;;5.43;4.57;;;;;;;7.72;61.77;96921.34;5111531;28;20461;-72
2020/12/19 03:33:08;;;;;;;5.27;4.77;;;;;;;7.73;61.89;96916.97;5103827;28;20459;-71
2020/12/19 03:35:34;;;;;;;8.93;5.10;;;;;;;7.67;62.17;96915.75;5099258;28;20193;-73
2020/12/19 03:38:01;;;;;;;6.07;4.67;;;;;;;7.67;62.20;96910.53;5109625;28;20424;-71
2020/12/19 03:40:26;;;;;;;6.80;5.10;;;;;;;7.67;62.40;96905.31;5112913;28;20418;-71
2020/12/19 03:42:53;;;;;;;10.63;5.00;;;;;;;7.68;62.03;96906.97;5104173;28;20412;-72
2020/12/19 03:45:18;;;;;;;5.33;4.83;;;;;;;7.71;61.77;96906.66;5112342;28;20272;-70
2020/12/19 03:47:44;;;;;;;6.87;5.30;;;;;;;7.67;61.81;96906.13;5106381;28;20502;-69
2020/12/19 03:50:10;;;;;;;10.00;5.10;;;;;;;7.62;61.97;96903.13;5113008;27;20184;-70
2020/12/19 03:52:36;;;;;;;8.03;5.07;;;;;;;7.64;62.34;96900.38;5112817;28;20275;-70
2020/12/19 03:55:03;;;;;;;7.80;4.90;;;;;;;7.60;62.31;96899.00;5094363;28;20573;-71
2020/12/19 03:57:28;;;;;;;7.07;5.30;;;;;;;7.61;62.53;96891.06;5094563;28;20173;-71
2020/12/19 03:59:54;;;;;;;7.60;5.40;;;;;;;7.60;62.04;96888.56;5112731;28;20707;-71
2020/12/19 04:02:20;;;;;;;8.73;5.70;;;;;;;7.59;62.54;96886.94;5112412;28;20272;-70
2020/12/19 04:04:45;;;;;;;5.50;4.90;;;;;;;7.56;62.25;96888.03;5103955;28;20185;-72
2020/12/19 04:07:11;;;;;;;5.80;5.10;;;;;;;7.53;61.89;96893.53;5093698;28;20177;-69
2020/12/19 04:09:38;;;;;;;6.10;4.80;;;;;;;7.48;62.33;96888.75;5112832;28;20181;-71
2020/12/19 04:12:04;;;;;;;5.20;4.70;;;;;;;7.44;62.23;96892.59;5091129;28;20468;-72
2020/12/19 04:14:51;;;;;;;5.60;4.80;;;;;;;7.43;62.27;96888.34;5107015;28;20430;-72
2020/12/19 04:17:16;;;;;;;4.93;4.43;;;;;;;7.43;62.27;96888.34;5073681;28;20423;-71
2020/12/19 04:19:42;;;;;;;5.70;4.90;;;;;;;7.40;62.59;96880.81;5112022;28;20501;-69
2020/12/19 04:22:08;;;;;;;5.40;4.90;;;;;;;7.41;62.45;96885.06;5093878;28;20196;-72
2020/12/19 04:24:33;;;;;;;6.40;4.87;;;;;;;7.40;62.81;96878.19;5112653;28;20597;-72
2020/12/19 04:27:00;;;;;;;10.93;6.37;;;;;;;7.41;62.79;96874.63;5077136;28;20203;-71
2020/12/19 04:29:26;;;;;;;8.40;5.40;;;;;;;7.41;63.01;96874.63;5097352;28;20248;-72
2020/12/19 04:31:53;;;;;;;6.50;4.77;;;;;;;7.42;62.87;96865.00;5114134;28;20468;-72
2020/12/19 04:34:19;;;;;;;6.10;4.90;;;;;;;7.44;62.91;96870.91;5092215;28;20447;-72
2020/12/19 04:36:45;;;;;;;6.43;5.13;;;;;;;7.46;63.07;96869.00;5116195;28;20489;-70
2020/12/19 04:39:10;;;;;;;7.23;5.37;;;;;;;7.41;62.95;96871.19;5111579;28;20181;-70
2020/12/19 04:41:36;;;;;;;7.07;4.70;;;;;;;7.46;62.77;96869.81;5098352;28;20562;-71
2020/12/19 04:44:02;;;;;;;5.70;4.73;;;;;;;7.47;62.82;96868.84;5116757;28;20184;-73
2020/12/19 04:46:30;;;;;;;6.57;4.80;;;;;;;7.46;62.96;96869.81;5115487;28;20205;-72
2020/12/19 04:48:57;;;;;;;6.20;4.80;;;;;;;7.46;62.54;96869.00;5095414;28;20510;-71
2020/12/19 04:51:22;;;;;;;6.77;5.53;;;;;;;7.47;62.41;96868.03;5098881;28;20410;-70
2020/12/19 04:53:48;;;;;;;7.17;4.80;;;;;;;7.45;62.60;96868.16;5103527;28;20480;-70
2020/12/19 04:56:14;;;;;;;4.80;4.40;;;;;;;7.43;62.40;96866.66;5099224;28;20197;-71
2020/12/19 04:58:40;;;;;;;17.00;6.70;;;;;;;7.40;62.76;96865.16;5090957;28;20177;-71
2020/12/19 05:01:06;;;;;;;9.60;6.60;;;;;;;7.37;62.76;96868.84;5115305;28;20256;-72
2020/12/19 05:03:32;;;;;;;8.37;5.53;;;;;;;7.36;62.96;96864.63;5115573;28;20180;-70
2020/12/19 05:05:59;;;;;;;6.03;4.47;;;;;;;7.36;62.99;96863.78;5076223;28;20193;-71
2020/12/19 05:08:25;;;;;;;7.43;4.77;;;;;;;7.36;62.69;96863.78;5091219;28;20936;-71
2020/12/19 05:10:51;;;;;;;6.97;5.27;;;;;;;7.39;62.76;96868.72;5115664;28;20407;-71
2020/12/19 05:13:17;;;;;;;5.87;4.30;;;;;;;7.40;62.64;96862.56;5115184;28;20205;-71
2020/12/19 05:15:43;;;;;;;5.73;4.20;;;;;;;7.40;62.75;96875.59;5063177;28;21122;-71
2020/12/19 05:18:08;;;;;;;6.90;4.07;;;;;;;7.41;62.89;96872.03;5096548;28;20279;-71
2020/12/19 05:20:34;;;;;;;5.67;4.60;;;;;;;7.43;62.84;96867.50;5074834;28;20734;-71
2020/12/19 05:23:00;;;;;;;6.17;5.23;;;;;;;7.44;62.58;96863.91;5079491;28;20671;-71
2020/12/19 05:25:27;;;;;;;8.10;4.97;;;;;;;7.45;62.53;96869.94;5103445;28;20694;-70
2020/12/19 05:27:53;;;;;;;9.93;6.30;;;;;;;7.43;62.38;96870.09;5114819;28;20196;-70
2020/12/19 05:30:20;;;;;;;9.43;5.70;;;;;;;7.44;62.63;96856.06;5114794;28;20807;-71
2020/12/19 05:32:53;;;;;;;5.80;4.73;;;;;;;7.44;62.83;96858.69;5114550;28;20450;-70
2020/12/19 05:35:23;;;;;;;5.93;4.83;;;;;;;7.45;63.28;96870.75;5095942;28;20453;-70
2020/12/19 05:37:59;;;;;;;5.03;4.30;;;;;;;7.46;62.21;96866.38;5096219;28;20552;-71
2020/12/19 05:40:27;;;;;;;6.40;5.27;;;;;;;7.44;62.27;96869.13;5113327;28;20418;-71
2020/12/19 05:42:52;;;;;;;7.50;5.30;;;;;;;7.39;62.62;96871.34;5114402;28;20422;-71
2020/12/19 05:45:20;;;;;;;8.20;5.73;;;;;;;7.34;62.16;96865.72;5095933;28;20439;-70
2020/12/19 05:47:47;;;;;;;8.03;5.40;;;;;;;7.32;62.52;96865.03;5113810;28;20571;-70
2020/12/19 05:50:13;;;;;;;6.37;5.37;;;;;;;7.30;62.75;96872.19;5114717;28;20421;-71
2020/12/19 05:52:40;;;;;;;7.63;4.97;;;;;;;7.31;62.86;96868.63;5096376;28;20451;-71
2020/12/19 05:55:08;;;;;;;9.37;5.30;;;;;;;7.33;62.90;96864.06;5083963;28;20809;-71
2020/12/19 05:57:35;;;;;;;6.87;5.60;;;;;;;7.33;62.81;96861.47;5062639;28;20434;-71
2020/12/19 06:00:07;;;;;;;9.90;6.20;;;;;;;7.33;62.69;96870.13;5113967;28;20877;-71
2020/12/19 06:02:35;;;;;;;9.57;5.90;;;;;;;7.31;62.79;96868.63;5114562;28;20422;-71
2020/12/19 06:05:02;;;;;;;13.30;6.80;;;;;;;7.25;63.04;96866.56;5114017;28;20450;-71
2020/12/19 06:07:30;;;;;;;10.00;5.63;;;;;;;7.25;62.93;96874.38;5095587;28;20752;-71
2020/12/19 06:09:56;;;;;;;5.83;4.70;;;;;;;7.29;62.57;96873.16;5095852;28;20458;-71
2020/12/19 06:12:51;;;;;;;6.40;4.80;;;;;;;7.26;62.68;96878.63;5114071;28;20447;-71
2020/12/19 06:15:39;;;;;;;6.73;5.43;;;;;;;7.27;62.82;96867.25;5077169;28;20431;-71
2020/12/19 06:18:10;;;;;;;7.23;4.97;;;;;;;7.26;62.99;96869.00;5095999;28;20718;-72
2020/12/19 06:20:36;;;;;;;5.37;4.30;;;;;;;7.25;62.57;96872.56;5095693;28;20446;-71
2020/12/19 06:23:13;;;;;;;6.43;4.43;;;;;;;7.23;62.78;96872.72;5095097;28;20419;-71
2020/12/19 06:25:40;;;;;;;6.10;5.00;;;;;;;7.20;62.52;96873.00;5105094;28;20442;-71
2020/12/19 06:28:06;;;;;;;7.20;4.60;;;;;;;7.14;62.72;96876.19;5113487;28;20419;-70
2020/12/19 06:30:32;;;;;;;5.20;4.70;;;;;;;7.15;62.94;96872.63;5095203;28;20920;-72
2020/12/19 06:33:08;;;;;;;5.50;4.40;;;;;;;7.16;62.67;96870.81;5095007;28;20459;-71
2020/12/19 06:35:33;;;;;;;5.93;4.83;;;;;;;7.19;62.85;96873.16;5095019;28;20592;-71
2020/12/19 06:37:59;;;;;;;6.17;4.80;;;;;;;7.22;62.82;96871.09;5081225;28;20473;-71
2020/12/19 06:40:25;;;;;;;5.53;4.50;;;;;;;7.22;62.98;96870.28;5109056;28;20628;-71
2020/12/19 06:43:12;;;;;;;6.23;5.00;;;;;;;7.23;62.73;96877.94;5113057;28;20184;-72
2020/12/19 06:45:37;;;;;;;6.67;4.57;;;;;;;7.24;62.73;96881.38;5077613;28;20270;-70
2020/12/19 06:48:03;;;;;;;6.37;4.60;;;;;;;7.27;62.66;96877.66;5112719;28;20435;-71
2020/12/19 06:50:57;;;;;;;4.90;4.03;;;;;;;7.25;62.55;96888.22;5078322;28;20188;-71
2020/12/19 06:53:23;;;;;;;5.73;4.53;;;;;;;7.25;62.45;96882.19;5099532;28;20545;-72
2020/12/19 06:55:49;;;;;;;5.03;4.50;;;;;;;7.22;62.82;96885.91;5090243;28;20542;-71
2020/12/19 06:58:35;;;;;;;10.40;4.37;;;;;;;7.22;62.48;96881.50;5107878;28;20415;-71
2020/12/19 07:01:21;;;;;;;7.50;5.00;;;;;;;7.17;62.58;96888.09;5112901;28;20833;-72
2020/12/19 07:03:47;;;;;;;6.13;5.03;;;;;;;7.13;62.75;96882.34;5094941;28;20926;-72
2020/12/19 07:06:16;;;;;;;8.50;5.27;;;;;;;7.11;62.60;96889.47;5094389;28;20453;-70
2020/12/19 07:08:44;;;;;;;9.60;5.13;;;;;;;7.09;62.68;96886.19;5111431;28;20200;-71
2020/12/19 07:11:12;;;;;;;7.83;5.03;;;;;;;7.12;62.46;96885.09;5112812;27;20442;-71
2020/12/19 07:13:57;;;;;;;6.07;5.20;;;;;;;7.13;62.84;96877.13;5112923;27;20462;-70
2020/12/19 07:16:45;;;;;;;6.10;4.63;;;;;;;7.14;63.04;96881.38;5111656;28;20473;-71
2020/12/19 07:19:29;;;;;;;6.37;4.77;;;;;;;7.18;62.92;96887.94;5094771;28;20399;-71
2020/12/19 07:21:57;;;;;;;9.40;4.77;;;;;;;7.22;62.61;96881.50;5070326;28;20919;-70
2020/12/19 07:24:24;;;;;;;7.83;4.77;;;;;;;7.23;62.68;96885.75;5113088;28;20423;-71
2020/12/19 07:26:51;;;;;;;9.40;4.73;;;;;;;7.27;62.70;96885.50;5093976;28;20493;-71
2020/12/19 07:29:22;;;;;;;7.03;4.80;;;;;;;7.28;62.40;96890.56;5094690;28;20433;-71
2020/12/19 07:31:59;;;;;;;8.97;5.30;;;;;;;7.26;62.10;96891.66;5094267;28;20450;-70
2020/12/19 07:34:25;;;;;;;5.50;4.73;;;;;;;7.22;62.39;96893.72;5112451;28;20446;-71
2020/12/19 07:36:53;;;;;;;7.37;5.27;;;;;;;7.22;62.35;96898.94;5094053;28;20450;-71
2020/12/19 07:39:20;;;;;;;6.00;5.17;;;;;;;7.19;62.42;96902.63;5112697;28;20479;-70
2020/12/19 07:42:06;;;;;;;8.17;5.43;;;;;;;7.08;62.59;96905.38;5112410;28;20419;-70
2020/12/19 07:44:33;;;;;;;6.50;5.70;;;;;;;7.12;62.43;96905.94;5087765;28;20990;-72
2020/12/19 07:47:01;;;;;;;7.40;5.40;;;;;;;7.12;62.48;96905.94;5092498;28;20476;-71
2020/12/19 07:49:29;;;;;;;7.63;5.50;;;;;;;7.11;62.08;96917.34;5094242;28;20431;-70
2020/12/19 07:52:08;;;;;;;7.20;5.70;;;;;;;7.15;62.28;96906.50;5111968;28;20816;-70
2020/12/19 07:54:35;;;;;;;7.00;5.30;;;;;;;7.23;61.87;96913.63;5094218;28;20419;-72
2020/12/19 07:57:01;;;;;;;7.10;5.60;;;;;;;7.20;62.41;96908.69;5111811;28;20447;-71
2020/12/19 07:59:27;;;;;;;7.40;5.80;;;;;;;7.16;62.28;96915.97;5113042;28;20430;-72
2020/12/19 08:01:55;;;;;;;8.20;5.67;;;;;;;7.26;62.12;96908.13;5112883;28;20582;-71
2020/12/19 08:04:22;;;;;;;6.80;5.60;;;;;;;7.32;61.95;96910.19;5111647;28;20458;-71
2020/12/19 08:06:48;;;;;;;6.10;5.23;;;;;;;7.37;62.40;96909.75;5112799;28;20439;-71
2020/12/19 08:09:21;;;;;;;8.13;5.10;;;;;;;7.43;61.91;96913.59;5094198;28;20407;-71
2020/12/19 08:11:48;;;;;;;10.77;5.30;;;;;;;7.51;62.20;96917.16;5112123;28;21045;-70
2020/12/19 08:14:18;;;;;;;7.00;4.90;;;;;;;7.58;61.82;96917.41;5112434;28;20422;-70
2020/12/19 08:16:45;;;;;;;9.63;6.10;;;;;;;7.62;62.22;96916.19;5112198;28;20443;-72
2020/12/19 08:19:14;;;;;;;5.80;4.67;;;;;;;7.69;61.46;96917.25;5094873;28;20422;-70
2020/12/19 08:21:41;;;;;;;9.60;5.10;;;;;;;7.78;61.29;96917.34;5112668;28;20873;-70
2020/12/19 08:24:07;;;;;;;10.03;6.47;;;;;;;7.83;61.82;96910.75;5112783;28;20540;-72
2020/12/19 08:26:33;;;;;;;8.70;5.90;;;;;;;7.91;61.37;96904.81;5094283;28;20430;-70
2020/12/19 08:29:05;;;;;;;9.33;6.13;;;;;;;8.05;60.86;96908.78;5113913;28;20173;-72
2020/12/19 08:31:35;;;;;;;9.07;5.03;;;;;;;10.58;63.50;96905.06;5093747;28;20181;-69
2020/12/19 08:34:10;;;;;;;10.03;4.47;;;;;;;12.92;57.11;96902.72;5103238;28;20427;-68
2020/12/19 08:36:36;;;;;;;3.83;3.43;;;;;;;14.24;52.98;96897.06;5084783;28;20850;-69
2020/12/19 08:39:15;;;;;;;13.33;4.20;;;;;;;14.49;49.21;96896.75;5111585;28;20490;-69
2020/12/19 08:41:42;;;;;;;12.83;4.50;;;;;;;14.70;46.95;96897.84;5111685;28;20468;-70
2020/12/19 08:44:24;;;;;;;10.37;4.70;;;;;;;15.11;46.54;96905.19;5111334;28;20415;-69
2020/12/19 08:47:19;;;;;;;5.80;4.83;;;;;;;14.27;43.16;96898.53;5110674;28;20453;-71
2020/12/19 08:49:45;;;;;;;6.20;5.40;;;;;;;13.17;45.11;96908.59;5008309;28;20435;-71
2020/12/19 08:52:11;;;;;;;5.20;4.60;;;;;;;12.17;46.59;96910.94;5008689;28;20467;-70
2020/12/19 08:54:36;;;;;;;5.27;4.23;;;;;;;11.46;48.55;96908.94;5023838;28;20192;-69
2020/12/19 08:57:02;;;;;;;5.60;4.50;;;;;;;11.09;50.01;96910.22;5022310;28;20216;-69
2020/12/19 08:59:28;;;;;;;7.03;5.00;;;;;;;10.80;50.82;96916.75;5012157;28;20541;-69
2020/12/19 09:01:54;;;;;;;7.27;4.60;;;;;;;10.59;51.75;96919.81;5028358;28;20623;-69
2020/12/19 09:04:20;;;;;;;7.73;4.93;;;;;;;10.47;52.28;96928.94;5009684;28;20191;-69
2020/12/19 09:06:47;;;;;;;6.13;5.03;;;;;;;10.43;52.52;96924.00;5010176;28;20534;-69
2020/12/19 09:09:29;;;;;;;7.93;4.07;;;;;;;10.38;52.98;96933.31;4977943;28;20193;-69
2020/12/19 09:12:12;;;;;;;4.27;3.83;;;;;;;10.27;52.75;96922.09;4997532;28;20463;-69
2020/12/19 09:14:37;;;;;;;5.23;4.00;;;;;;;10.36;52.87;96930.00;4979334;28;20814;-69
2020/12/19 09:17:03;;;;;;;7.50;4.27;;;;;;;10.39;52.71;96934.94;4984762;28;20520;-70
2020/12/19 09:19:29;;;;;;;5.40;4.20;;;;;;;10.43;52.35;96931.84;5011975;28;20193;-68
2020/12/19 09:22:03;;;;;;;5.47;4.17;;;;;;;10.48;52.42;96933.19;5013298;28;20207;-68
2020/12/19 09:24:29;;;;;;;8.40;4.50;;;;;;;10.62;52.39;96932.59;5026666;28;20255;-71
2020/12/19 09:26:54;;;;;;;5.03;4.17;;;;;;;10.70;51.81;96937.03;5099175;28;20505;-69
2020/12/19 09:29:20;;;;;;;6.83;3.13;;;;;;;10.71;51.40;96939.50;5114970;28;20181;-68
2020/12/19 09:31:46;;;;;;;23.77;12.17;;;;;;;11.61;60.36;96937.94;5096180;28;20200;-70
2020/12/19 09:34:12;;;;;;;20.60;15.83;;;;;;;13.65;53.88;96938.19;5071881;28;20170;-69
2020/12/19 09:36:38;;;;;;;22.20;13.30;;;;;;;14.72;51.51;96933.56;5105864;28;20307;-70
2020/12/19 09:39:04;;;;;;;14.90;8.40;;;;;;;15.13;47.94;96934.81;5079356;28;20185;-70
2020/12/19 09:41:31;;;;;;;12.70;7.67;;;;;;;15.25;44.66;96936.97;5113159;28;20783;-71
2020/12/19 09:43:57;;;;;;;14.80;10.47;;;;;;;16.08;45.95;96928.47;5113020;28;20427;-71
2020/12/19 09:46:22;;;;;;;30.67;8.47;;;;;;;16.01;43.37;96931.09;5064633;28;20444;-71
2020/12/19 09:48:48;;;;;;;16.20;8.67;;;;;;;16.18;45.38;96928.16;5091449;28;20567;-72
2020/12/19 09:51:14;;;;;;;14.10;9.20;;;;;;;16.65;45.27;96921.25;5073497;28;20169;-73
2020/12/19 09:53:40;;;;;;;12.50;7.37;;;;;;;16.94;40.22;96929.91;5097645;28;20201;-72
2020/12/19 09:56:06;;;;;;;12.13;7.50;;;;;;;17.02;42.09;96926.28;5115272;28;20197;-70
2020/12/19 09:58:32;;;;;;;7.70;5.90;;;;;;;16.95;40.71;96926.25;5115185;28;20421;-71
2020/12/19 10:00:58;;;;;;;12.33;5.20;;;;;;;16.40;43.03;96924.38;5115390;28;20642;-71
2020/12/19 10:03:23;;;;;;;5.53;4.20;;;;;;;16.20;39.75;96918.19;5096723;28;20195;-70
2020/12/19 10:05:49;;;;;;;16.40;8.97;;;;;;;15.23;40.10;96917.88;5114904;28;20373;-70
2020/12/19 10:08:15;;;;;;;15.00;6.03;;;;;;;14.81;41.61;96920.25;5082507;28;20201;-70
2020/12/19 10:10:43;;;;;;;6.57;5.17;;;;;;;14.41;42.51;96920.59;5090084;28;20861;-70
2020/12/19 10:13:10;;;;;;;5.33;4.50;;;;;;;13.95;43.04;96926.88;5112871;28;20455;-70
2020/12/19 10:15:36;;;;;;;9.50;5.87;;;;;;;13.71;43.89;96933.19;5113690;28;20806;-70
2020/12/19 10:18:01;;;;;;;10.43;4.57;;;;;;;13.23;45.37;96921.06;5112866;28;20430;-71
2020/12/19 10:20:27;;;;;;;11.60;5.77;;;;;;;13.19;45.81;96914.50;5114035;28;20666;-70
2020/12/19 10:22:53;;;;;;;5.47;4.50;;;;;;;13.21;46.35;96909.91;5113487;28;20177;-70
2020/12/19 10:25:18;;;;;;;15.17;8.10;;;;;;;13.07;46.55;96911.44;5095096;28;20197;-70
2020/12/19 10:27:44;;;;;;;13.53;5.90;;;;;;;13.04;46.43;96910.00;5112740;28;20184;-69
2020/12/19 10:30:10;;;;;;;10.60;5.30;;;;;;;12.99;46.41;96911.53;5113741;28;20177;-70
2020/12/19 10:32:36;;;;;;;8.30;4.47;;;;;;;13.04;46.69;96904.75;5105860;28;20668;-69
2020/12/19 10:35:06;;;;;;;7.47;4.53;;;;;;;13.13;46.01;96902.88;5110657;28;20572;-70
2020/12/19 10:37:33;;;;;;;9.40;4.83;;;;;;;13.11;46.31;96898.75;5094919;28;20932;-71
2020/12/19 10:39:59;;;;;;;8.30;5.23;;;;;;;13.20;46.45;96892.47;5094884;28;20422;-71
2020/12/19 10:42:25;;;;;;;10.63;5.80;;;;;;;13.28;46.47;96899.47;5112801;28;21015;-71
2020/12/19 10:44:51;;;;;;;8.57;5.63;;;;;;;13.37;46.18;96899.22;5094178;28;20450;-70
2020/12/19 10:47:16;;;;;;;4.97;3.93;;;;;;;13.30;46.22;96889.56;5106507;28;20427;-71
2020/12/19 10:49:42;;;;;;;6.53;4.53;;;;;;;13.24;46.16;96888.47;5113259;28;20435;-70
2020/12/19 10:52:08;;;;;;;5.43;4.17;;;;;;;13.44;44.76;96890.66;5112970;28;20287;-71
2020/12/19 10:54:33;;;;;;;7.70;3.00;;;;;;;13.61;44.79;96884.22;5112732;28;20227;-70
2020/12/19 10:57:00;;;;;;;4.87;3.13;;;;;;;13.60;44.26;96874.72;5094391;28;20316;-70
2020/12/19 10:59:27;;;;;;;2.73;2.50;;;;;;;13.73;44.07;96873.28;5112242;28;20261;-70
2020/12/19 11:01:52;;;;;;;3.77;2.83;;;;;;;13.79;43.69;96872.53;5112941;28;20453;-70
2020/12/19 11:04:18;;;;;;;3.93;2.60;;;;;;;13.80;42.49;96871.53;5107670;28;20431;-69
2020/12/19 11:06:44;;;;;;;2.60;2.40;;;;;;;13.95;42.15;96858.38;5091107;28;20200;-70
2020/12/19 11:09:11;;;;;;;5.00;2.43;;;;;;;13.89;41.97;96862.53;5113043;28;20184;-71
2020/12/19 11:11:36;;;;;;;2.93;2.47;;;;;;;13.90;42.07;96866.81;5112020;28;20644;-71
2020/12/19 11:14:02;;;;;;;3.97;2.20;;;;;;;13.96;41.29;96860.84;5112784;28;20430;-70
2020/12/19 11:16:29;;;;;;;2.87;2.50;;;;;;;14.00;41.13;96865.72;5102408;28;20284;-70
2020/12/19 11:18:56;;;;;;;13.43;2.90;;;;;;;14.24;41.23;96867.25;5112252;28;20181;-70
2020/12/19 11:21:22;;;;;;;4.57;2.83;;;;;;;14.25;41.22;96848.63;5112587;28;20514;-70
2020/12/19 11:23:49;;;;;;;3.40;2.83;;;;;;;14.20;41.47;96851.00;5068631;28;20964;-71
2020/12/19 11:26:19;;;;;;;2.73;2.27;;;;;;;14.33;40.68;96846.88;5076875;28;20474;-70
2020/12/19 11:28:48;;;;;;;3.00;2.70;;;;;;;14.29;40.87;96844.63;5090631;28;20484;-70
2020/12/19 11:31:23;;;;;;;3.40;2.20;;;;;;;14.55;40.51;96838.00;5111421;28;20411;-70
2020/12/19 11:33:49;;;;;;;3.27;2.33;;;;;;;14.73;40.17;96834.97;5110704;28;20506;-71
2020/12/19 11:36:15;;;;;;;3.20;2.90;;;;;;;14.72;39.59;96835.19;5112204;28;20533;-71
2020/12/19 11:38:40;;;;;;;3.60;2.97;;;;;;;14.79;39.22;96837.88;5108330;28;20173;-69
2020/12/19 11:41:06;;;;;;;2.97;2.17;;;;;;;14.38;39.21;96831.31;5112353;28;20177;-70